Linwood, New York
Current Conditions -  °F | °C
As of 7:54 AM on Thursday 23 Oct 2014 (Local Time) from KROC Reporting Station
Broken Clouds Broken Clouds  
Wind Chill: 43°   Ceiling: 8000
Heat Index: 48°   Visibility: 10mi
Dew Point: 38°   Wind: 10mph
Humidity: 68%   Direction: 10°N
Pressure: 30.1"   Gusts: NA
Location:  42.89°N, 77.95°W
Report Text: KROC 231154Z 01009KT 10SM SCT042 BKN080 BKN120 09/03 A3010 RMK AO2 SLP198 T00890033 10094 20083 51002
Loading
Personal Weather Stations






























Interactive Weather Map
Tropical Storm Tracking
New forecast layout! Learn more

10-Day Weather Forecast

Advertisements
Track Severe Weather on mobile